sensor_id;sensor_type;location;lat;lon;timestamp;P1;durP1;ratioP1;P2;durP2;ratioP2
8312;SDS011;4194;43.408;24.626;2022-09-21T00:02:01;1.33;;;1.23;;
8312;SDS011;4194;43.408;24.626;2022-09-21T00:04:27;2.70;;;1.20;;
8312;SDS011;4194;43.408;24.626;2022-09-21T00:06:52;3.23;;;1.17;;
8312;SDS011;4194;43.408;24.626;2022-09-21T00:09:18;2.10;;;1.23;;
8312;SDS011;4194;43.408;24.626;2022-09-21T00:11:44;1.50;;;1.40;;
8312;SDS011;4194;43.408;24.626;2022-09-21T00:14:11;1.73;;;1.37;;
8312;SDS011;4194;43.408;24.626;2022-09-21T00:16:41;2.73;;;1.30;;
8312;SDS011;4194;43.408;24.626;2022-09-21T00:19:07;1.50;;;1.40;;
8312;SDS011;4194;43.408;24.626;2022-09-21T00:21:34;2.17;;;1.40;;
8312;SDS011;4194;43.408;24.626;2022-09-21T00:24:02;1.63;;;1.40;;
8312;SDS011;4194;43.408;24.626;2022-09-21T00:26:28;1.60;;;1.50;;
8312;SDS011;4194;43.408;24.626;2022-09-21T00:28:54;1.60;;;1.43;;
8312;SDS011;4194;43.408;24.626;2022-09-21T00:31:25;1.97;;;1.40;;
8312;SDS011;4194;43.408;24.626;2022-09-21T00:33:52;1.60;;;1.50;;
8312;SDS011;4194;43.408;24.626;2022-09-21T00:36:19;1.70;;;1.30;;
8312;SDS011;4194;43.408;24.626;2022-09-21T00:38:50;1.60;;;1.50;;
8312;SDS011;4194;43.408;24.626;2022-09-21T00:41:17;2.67;;;1.37;;
8312;SDS011;4194;43.408;24.626;2022-09-21T00:43:48;1.70;;;1.40;;
8312;SDS011;4194;43.408;24.626;2022-09-21T00:46:34;1.50;;;1.40;;
8312;SDS011;4194;43.408;24.626;2022-09-21T00:49:03;1.30;;;1.20;;
8312;SDS011;4194;43.408;24.626;2022-09-21T00:51:29;1.30;;;1.13;;
8312;SDS011;4194;43.408;24.626;2022-09-21T00:53:56;1.77;;;1.37;;
8312;SDS011;4194;43.408;24.626;2022-09-21T00:56:27;1.80;;;1.20;;
8312;SDS011;4194;43.408;24.626;2022-09-21T00:58:53;1.30;;;1.10;;
8312;SDS011;4194;43.408;24.626;2022-09-21T01:01:19;1.80;;;1.30;;
8312;SDS011;4194;43.408;24.626;2022-09-21T01:03:46;1.30;;;1.20;;
8312;SDS011;4194;43.408;24.626;2022-09-21T01:06:13;1.30;;;1.00;;
8312;SDS011;4194;43.408;24.626;2022-09-21T01:08:41;2.37;;;1.20;;
8312;SDS011;4194;43.408;24.626;2022-09-21T01:16:58;2.63;;;1.10;;
8312;SDS011;4194;43.408;24.626;2022-09-21T01:19:43;1.33;;;1.00;;
8312;SDS011;4194;43.408;24.626;2022-09-21T01:27:51;2.40;;;1.10;;
8312;SDS011;4194;43.408;24.626;2022-09-21T01:30:27;1.37;;;1.07;;
8312;SDS011;4194;43.408;24.626;2022-09-21T01:33:02;2.10;;;1.00;;
8312;SDS011;4194;43.408;24.626;2022-09-21T01:35:41;1.20;;;1.10;;
8312;SDS011;4194;43.408;24.626;2022-09-21T01:38:30;1.30;;;1.10;;
8312;SDS011;4194;43.408;24.626;2022-09-21T01:41:02;1.40;;;0.97;;
8312;SDS011;4194;43.408;24.626;2022-09-21T01:43:32;0.83;;;0.83;;
8312;SDS011;4194;43.408;24.626;2022-09-21T01:46:01;2.43;;;1.20;;
8312;SDS011;4194;43.408;24.626;2022-09-21T01:48:32;2.27;;;1.00;;
8312;SDS011;4194;43.408;24.626;2022-09-21T01:51:03;2.40;;;1.10;;
8312;SDS011;4194;43.408;24.626;2022-09-21T01:56:00;2.20;;;1.20;;
8312;SDS011;4194;43.408;24.626;2022-09-21T02:01:36;1.37;;;1.20;;
8312;SDS011;4194;43.408;24.626;2022-09-21T02:04:07;3.40;;;1.23;;
8312;SDS011;4194;43.408;24.626;2022-09-21T02:06:36;1.03;;;1.00;;
8312;SDS011;4194;43.408;24.626;2022-09-21T02:09:05;2.30;;;0.97;;
8312;SDS011;4194;43.408;24.626;2022-09-21T02:11:33;1.30;;;1.20;;
8312;SDS011;4194;43.408;24.626;2022-09-21T02:14:02;2.10;;;1.00;;
8312;SDS011;4194;43.408;24.626;2022-09-21T02:16:39;1.40;;;1.30;;
8312;SDS011;4194;43.408;24.626;2022-09-21T02:25:09;1.20;;;1.10;;
8312;SDS011;4194;43.408;24.626;2022-09-21T02:30:13;1.80;;;1.30;;
8312;SDS011;4194;43.408;24.626;2022-09-21T02:43:32;1.47;;;0.80;;
8312;SDS011;4194;43.408;24.626;2022-09-21T02:46:05;1.00;;;1.00;;
8312;SDS011;4194;43.408;24.626;2022-09-21T02:48:46;1.63;;;0.80;;
8312;SDS011;4194;43.408;24.626;2022-09-21T02:51:16;1.00;;;1.00;;
8312;SDS011;4194;43.408;24.626;2022-09-21T02:53:48;1.20;;;1.10;;
8312;SDS011;4194;43.408;24.626;2022-09-21T02:56:17;2.67;;;1.20;;
8312;SDS011;4194;43.408;24.626;2022-09-21T02:58:45;1.13;;;1.03;;
8312;SDS011;4194;43.408;24.626;2022-09-21T03:01:15;1.37;;;1.10;;
8312;SDS011;4194;43.408;24.626;2022-09-21T03:03:42;2.30;;;1.40;;
8312;SDS011;4194;43.408;24.626;2022-09-21T03:06:08;1.17;;;1.07;;
8312;SDS011;4194;43.408;24.626;2022-09-21T03:08:34;2.80;;;1.10;;
8312;SDS011;4194;43.408;24.626;2022-09-21T03:11:00;2.87;;;1.20;;
8312;SDS011;4194;43.408;24.626;2022-09-21T03:13:26;3.00;;;0.90;;
8312;SDS011;4194;43.408;24.626;2022-09-21T03:15:57;2.27;;;1.00;;
8312;SDS011;4194;43.408;24.626;2022-09-21T03:18:25;1.43;;;1.27;;
8312;SDS011;4194;43.408;24.626;2022-09-21T03:20:50;1.63;;;1.20;;
8312;SDS011;4194;43.408;24.626;2022-09-21T03:23:16;1.37;;;1.27;;
8312;SDS011;4194;43.408;24.626;2022-09-21T03:25:43;3.17;;;1.23;;
8312;SDS011;4194;43.408;24.626;2022-09-21T03:28:13;1.50;;;1.15;;
8312;SDS011;4194;43.408;24.626;2022-09-21T03:30:39;1.77;;;1.10;;
8312;SDS011;4194;43.408;24.626;2022-09-21T03:33:05;2.00;;;1.03;;
8312;SDS011;4194;43.408;24.626;2022-09-21T03:35:32;0.90;;;0.90;;
8312;SDS011;4194;43.408;24.626;2022-09-21T03:37:58;1.10;;;1.00;;
8312;SDS011;4194;43.408;24.626;2022-09-21T03:40:24;2.17;;;0.90;;
8312;SDS011;4194;43.408;24.626;2022-09-21T03:42:51;2.00;;;1.17;;
8312;SDS011;4194;43.408;24.626;2022-09-21T03:45:18;1.70;;;1.10;;
8312;SDS011;4194;43.408;24.626;2022-09-21T03:47:46;1.80;;;1.20;;
8312;SDS011;4194;43.408;24.626;2022-09-21T03:50:12;2.43;;;0.83;;
8312;SDS011;4194;43.408;24.626;2022-09-21T03:52:38;2.50;;;1.10;;
8312;SDS011;4194;43.408;24.626;2022-09-21T03:55:05;3.37;;;1.13;;
8312;SDS011;4194;43.408;24.626;2022-09-21T03:57:33;3.83;;;1.27;;
8312;SDS011;4194;43.408;24.626;2022-09-21T04:00:00;1.90;;;1.10;;
8312;SDS011;4194;43.408;24.626;2022-09-21T04:02:31;2.17;;;1.10;;
8312;SDS011;4194;43.408;24.626;2022-09-21T04:04:56;2.07;;;1.20;;
8312;SDS011;4194;43.408;24.626;2022-09-21T04:07:22;4.10;;;0.97;;
8312;SDS011;4194;43.408;24.626;2022-09-21T04:09:48;2.17;;;1.10;;
8312;SDS011;4194;43.408;24.626;2022-09-21T04:12:14;3.63;;;1.20;;
8312;SDS011;4194;43.408;24.626;2022-09-21T04:14:39;6.27;;;1.43;;
8312;SDS011;4194;43.408;24.626;2022-09-21T04:17:05;2.40;;;1.20;;
8312;SDS011;4194;43.408;24.626;2022-09-21T04:19:31;3.37;;;1.40;;
8312;SDS011;4194;43.408;24.626;2022-09-21T04:21:56;1.50;;;1.27;;
8312;SDS011;4194;43.408;24.626;2022-09-21T04:24:22;1.60;;;1.50;;
8312;SDS011;4194;43.408;24.626;2022-09-21T04:26:48;2.57;;;1.47;;
8312;SDS011;4194;43.408;24.626;2022-09-21T04:29:14;3.13;;;1.30;;
8312;SDS011;4194;43.408;24.626;2022-09-21T04:31:40;2.27;;;1.47;;
8312;SDS011;4194;43.408;24.626;2022-09-21T04:34:07;3.00;;;1.90;;
8312;SDS011;4194;43.408;24.626;2022-09-21T04:36:36;3.03;;;1.47;;
8312;SDS011;4194;43.408;24.626;2022-09-21T04:39:02;1.50;;;1.30;;
8312;SDS011;4194;43.408;24.626;2022-09-21T04:41:28;7.13;;;1.43;;
8312;SDS011;4194;43.408;24.626;2022-09-21T04:43:54;3.50;;;1.30;;
8312;SDS011;4194;43.408;24.626;2022-09-21T04:46:20;3.00;;;1.70;;
8312;SDS011;4194;43.408;24.626;2022-09-21T04:48:46;5.13;;;1.50;;
8312;SDS011;4194;43.408;24.626;2022-09-21T04:51:14;2.30;;;1.70;;
8312;SDS011;4194;43.408;24.626;2022-09-21T04:53:41;2.13;;;1.30;;
8312;SDS011;4194;43.408;24.626;2022-09-21T04:56:08;2.80;;;1.43;;
8312;SDS011;4194;43.408;24.626;2022-09-21T04:58:37;1.87;;;1.37;;
8312;SDS011;4194;43.408;24.626;2022-09-21T05:01:03;4.03;;;1.57;;
8312;SDS011;4194;43.408;24.626;2022-09-21T05:03:30;1.67;;;1.10;;
8312;SDS011;4194;43.408;24.626;2022-09-21T05:05:56;3.93;;;1.37;;
8312;SDS011;4194;43.408;24.626;2022-09-21T05:08:23;2.37;;;1.40;;
8312;SDS011;4194;43.408;24.626;2022-09-21T05:11:09;3.07;;;1.50;;
8312;SDS011;4194;43.408;24.626;2022-09-21T05:13:37;3.57;;;1.10;;
8312;SDS011;4194;43.408;24.626;2022-09-21T05:16:03;1.87;;;1.03;;
8312;SDS011;4194;43.408;24.626;2022-09-21T05:18:29;2.47;;;1.20;;
8312;SDS011;4194;43.408;24.626;2022-09-21T05:20:56;3.20;;;1.40;;
8312;SDS011;4194;43.408;24.626;2022-09-21T05:23:23;2.00;;;1.50;;
8312;SDS011;4194;43.408;24.626;2022-09-21T05:25:50;1.07;;;1.00;;
8312;SDS011;4194;43.408;24.626;2022-09-21T05:28:16;1.10;;;1.00;;
8312;SDS011;4194;43.408;24.626;2022-09-21T05:30:43;1.70;;;1.10;;
8312;SDS011;4194;43.408;24.626;2022-09-21T05:33:31;1.73;;;1.27;;
8312;SDS011;4194;43.408;24.626;2022-09-21T05:36:06;3.87;;;1.07;;
8312;SDS011;4194;43.408;24.626;2022-09-21T05:38:48;1.50;;;1.00;;
8312;SDS011;4194;43.408;24.626;2022-09-21T05:41:14;1.45;;;1.00;;
8312;SDS011;4194;43.408;24.626;2022-09-21T05:43:39;2.40;;;1.17;;
8312;SDS011;4194;43.408;24.626;2022-09-21T05:46:16;1.37;;;0.90;;
8312;SDS011;4194;43.408;24.626;2022-09-21T05:48:57;1.93;;;1.10;;
8312;SDS011;4194;43.408;24.626;2022-09-21T05:54:15;4.10;;;1.20;;
8312;SDS011;4194;43.408;24.626;2022-09-21T05:56:57;2.00;;;1.27;;
8312;SDS011;4194;43.408;24.626;2022-09-21T06:05:37;1.20;;;0.90;;
8312;SDS011;4194;43.408;24.626;2022-09-21T06:08:04;1.20;;;0.80;;
8312;SDS011;4194;43.408;24.626;2022-09-21T06:10:31;1.43;;;0.90;;
8312;SDS011;4194;43.408;24.626;2022-09-21T06:12:59;1.87;;;1.00;;
8312;SDS011;4194;43.408;24.626;2022-09-21T06:15:25;1.00;;;0.70;;
8312;SDS011;4194;43.408;24.626;2022-09-21T06:17:50;1.27;;;1.10;;
8312;SDS011;4194;43.408;24.626;2022-09-21T06:20:16;5.17;;;1.10;;
8312;SDS011;4194;43.408;24.626;2022-09-21T06:22:42;1.17;;;0.90;;
8312;SDS011;4194;43.408;24.626;2022-09-21T06:25:08;0.80;;;0.80;;
8312;SDS011;4194;43.408;24.626;2022-09-21T06:27:34;1.13;;;1.03;;
8312;SDS011;4194;43.408;24.626;2022-09-21T06:30:00;0.87;;;0.87;;
8312;SDS011;4194;43.408;24.626;2022-09-21T06:32:25;1.37;;;0.97;;
8312;SDS011;4194;43.408;24.626;2022-09-21T06:34:51;3.70;;;1.00;;
8312;SDS011;4194;43.408;24.626;2022-09-21T06:37:17;2.53;;;1.07;;
8312;SDS011;4194;43.408;24.626;2022-09-21T06:39:43;3.50;;;1.20;;
8312;SDS011;4194;43.408;24.626;2022-09-21T06:42:09;2.40;;;1.40;;
8312;SDS011;4194;43.408;24.626;2022-09-21T06:44:35;1.10;;;1.00;;
8312;SDS011;4194;43.408;24.626;2022-09-21T06:47:00;4.60;;;1.33;;
8312;SDS011;4194;43.408;24.626;2022-09-21T06:49:26;6.87;;;1.60;;
8312;SDS011;4194;43.408;24.626;2022-09-21T06:51:53;3.53;;;1.27;;
8312;SDS011;4194;43.408;24.626;2022-09-21T06:54:19;1.80;;;0.90;;
8312;SDS011;4194;43.408;24.626;2022-09-21T06:56:45;1.47;;;1.10;;
8312;SDS011;4194;43.408;24.626;2022-09-21T06:59:11;1.37;;;1.20;;
8312;SDS011;4194;43.408;24.626;2022-09-21T07:01:37;4.07;;;1.20;;
8312;SDS011;4194;43.408;24.626;2022-09-21T07:04:03;8.43;;;1.20;;
8312;SDS011;4194;43.408;24.626;2022-09-21T07:06:28;3.10;;;1.07;;
8312;SDS011;4194;43.408;24.626;2022-09-21T07:08:54;3.70;;;1.33;;
8312;SDS011;4194;43.408;24.626;2022-09-21T07:11:20;1.20;;;1.03;;
8312;SDS011;4194;43.408;24.626;2022-09-21T07:13:47;3.03;;;1.40;;
8312;SDS011;4194;43.408;24.626;2022-09-21T07:16:13;2.27;;;1.37;;
8312;SDS011;4194;43.408;24.626;2022-09-21T07:18:40;1.50;;;1.30;;
8312;SDS011;4194;43.408;24.626;2022-09-21T07:21:07;1.10;;;1.00;;
8312;SDS011;4194;43.408;24.626;2022-09-21T07:23:34;1.73;;;1.23;;
8312;SDS011;4194;43.408;24.626;2022-09-21T07:26:01;1.60;;;1.13;;
8312;SDS011;4194;43.408;24.626;2022-09-21T07:28:28;2.43;;;1.20;;
8312;SDS011;4194;43.408;24.626;2022-09-21T07:30:55;1.50;;;1.27;;
8312;SDS011;4194;43.408;24.626;2022-09-21T07:33:22;2.20;;;1.10;;
8312;SDS011;4194;43.408;24.626;2022-09-21T07:35:54;2.38;;;1.40;;
8312;SDS011;4194;43.408;24.626;2022-09-21T07:38:22;2.20;;;1.20;;
8312;SDS011;4194;43.408;24.626;2022-09-21T07:40:49;4.50;;;1.87;;
8312;SDS011;4194;43.408;24.626;2022-09-21T07:43:14;2.30;;;1.47;;
8312;SDS011;4194;43.408;24.626;2022-09-21T07:45:41;3.23;;;1.40;;
8312;SDS011;4194;43.408;24.626;2022-09-21T07:48:07;1.43;;;1.30;;
8312;SDS011;4194;43.408;24.626;2022-09-21T07:50:33;4.10;;;1.40;;
8312;SDS011;4194;43.408;24.626;2022-09-21T07:53:02;1.33;;;1.23;;
8312;SDS011;4194;43.408;24.626;2022-09-21T07:55:28;1.77;;;1.10;;
8312;SDS011;4194;43.408;24.626;2022-09-21T07:57:54;2.23;;;1.30;;
8312;SDS011;4194;43.408;24.626;2022-09-21T08:00:39;1.90;;;1.00;;
8312;SDS011;4194;43.408;24.626;2022-09-21T08:03:04;2.80;;;1.20;;
8312;SDS011;4194;43.408;24.626;2022-09-21T08:05:30;2.03;;;1.40;;
8312;SDS011;4194;43.408;24.626;2022-09-21T08:07:57;2.03;;;1.13;;
8312;SDS011;4194;43.408;24.626;2022-09-21T08:10:23;1.63;;;1.20;;
8312;SDS011;4194;43.408;24.626;2022-09-21T08:12:52;1.83;;;1.20;;
8312;SDS011;4194;43.408;24.626;2022-09-21T08:15:18;3.17;;;1.40;;
8312;SDS011;4194;43.408;24.626;2022-09-21T08:17:43;1.50;;;1.30;;
8312;SDS011;4194;43.408;24.626;2022-09-21T08:20:09;2.97;;;1.23;;
8312;SDS011;4194;43.408;24.626;2022-09-21T08:22:35;3.03;;;1.20;;
8312;SDS011;4194;43.408;24.626;2022-09-21T08:25:01;1.97;;;1.10;;
8312;SDS011;4194;43.408;24.626;2022-09-21T08:27:28;2.17;;;1.37;;
8312;SDS011;4194;43.408;24.626;2022-09-21T08:29:54;2.57;;;1.70;;
8312;SDS011;4194;43.408;24.626;2022-09-21T08:32:20;2.00;;;1.47;;
8312;SDS011;4194;43.408;24.626;2022-09-21T08:34:45;1.60;;;1.23;;
8312;SDS011;4194;43.408;24.626;2022-09-21T08:37:11;1.80;;;0.90;;
8312;SDS011;4194;43.408;24.626;2022-09-21T08:39:37;1.90;;;1.40;;
8312;SDS011;4194;43.408;24.626;2022-09-21T08:44:39;0.73;;;0.70;;
8312;SDS011;4194;43.408;24.626;2022-09-21T08:47:32;1.33;;;1.17;;
8312;SDS011;4194;43.408;24.626;2022-09-21T08:53:13;1.57;;;1.40;;
8312;SDS011;4194;43.408;24.626;2022-09-21T08:55:43;1.30;;;1.00;;
8312;SDS011;4194;43.408;24.626;2022-09-21T08:58:30;3.00;;;1.10;;
8312;SDS011;4194;43.408;24.626;2022-09-21T09:01:02;2.03;;;1.20;;
8312;SDS011;4194;43.408;24.626;2022-09-21T09:06:30;2.03;;;1.67;;
8312;SDS011;4194;43.408;24.626;2022-09-21T09:22:35;0.87;;;0.87;;
8312;SDS011;4194;43.408;24.626;2022-09-21T09:25:26;2.43;;;1.60;;
8312;SDS011;4194;43.408;24.626;2022-09-21T09:28:14;2.20;;;1.50;;
8312;SDS011;4194;43.408;24.626;2022-09-21T09:30:44;1.67;;;1.13;;
8312;SDS011;4194;43.408;24.626;2022-09-21T09:33:13;3.17;;;1.50;;
8312;SDS011;4194;43.408;24.626;2022-09-21T09:35:48;5.43;;;1.50;;
8312;SDS011;4194;43.408;24.626;2022-09-21T09:38:36;4.35;;;2.00;;
8312;SDS011;4194;43.408;24.626;2022-09-21T09:46:35;2.30;;;1.30;;
8312;SDS011;4194;43.408;24.626;2022-09-21T09:52:04;3.97;;;1.50;;
8312;SDS011;4194;43.408;24.626;2022-09-21T09:54:36;3.37;;;1.10;;
8312;SDS011;4194;43.408;24.626;2022-09-21T09:57:01;6.47;;;1.17;;
8312;SDS011;4194;43.408;24.626;2022-09-21T09:59:33;2.03;;;1.20;;
8312;SDS011;4194;43.408;24.626;2022-09-21T10:02:10;3.50;;;1.20;;
8312;SDS011;4194;43.408;24.626;2022-09-21T10:04:58;1.47;;;1.37;;
8312;SDS011;4194;43.408;24.626;2022-09-21T10:13:12;1.70;;;1.43;;
8312;SDS011;4194;43.408;24.626;2022-09-21T10:15:49;1.10;;;1.00;;
8312;SDS011;4194;43.408;24.626;2022-09-21T10:21:04;3.90;;;1.43;;
8312;SDS011;4194;43.408;24.626;2022-09-21T10:23:33;1.13;;;0.93;;
8312;SDS011;4194;43.408;24.626;2022-09-21T10:26:08;4.60;;;1.10;;
8312;SDS011;4194;43.408;24.626;2022-09-21T10:28:36;1.53;;;1.40;;
8312;SDS011;4194;43.408;24.626;2022-09-21T10:31:23;1.63;;;1.10;;
8312;SDS011;4194;43.408;24.626;2022-09-21T10:33:52;0.93;;;0.80;;
8312;SDS011;4194;43.408;24.626;2022-09-21T10:36:29;1.90;;;1.07;;
8312;SDS011;4194;43.408;24.626;2022-09-21T10:44:22;1.97;;;1.10;;
8312;SDS011;4194;43.408;24.626;2022-09-21T10:46:50;2.90;;;1.07;;
8312;SDS011;4194;43.408;24.626;2022-09-21T10:49:21;0.73;;;0.70;;
8312;SDS011;4194;43.408;24.626;2022-09-21T10:51:50;1.73;;;1.13;;
8312;SDS011;4194;43.408;24.626;2022-09-21T10:54:19;1.10;;;0.80;;
8312;SDS011;4194;43.408;24.626;2022-09-21T10:56:51;2.30;;;1.37;;
8312;SDS011;4194;43.408;24.626;2022-09-21T11:01:49;2.80;;;1.60;;
8312;SDS011;4194;43.408;24.626;2022-09-21T11:09:43;2.53;;;1.60;;
8312;SDS011;4194;43.408;24.626;2022-09-21T11:21:12;0.80;;;0.80;;
8312;SDS011;4194;43.408;24.626;2022-09-21T11:23:46;1.63;;;1.00;;
8312;SDS011;4194;43.408;24.626;2022-09-21T11:26:36;1.23;;;1.10;;
8312;SDS011;4194;43.408;24.626;2022-09-21T11:42:52;3.67;;;1.37;;
8312;SDS011;4194;43.408;24.626;2022-09-21T11:46:15;4.90;;;1.63;;
8312;SDS011;4194;43.408;24.626;2022-09-21T11:48:51;1.50;;;1.40;;
8312;SDS011;4194;43.408;24.626;2022-09-21T11:56:48;3.10;;;1.60;;
8312;SDS011;4194;43.408;24.626;2022-09-21T11:59:28;5.30;;;1.70;;
8312;SDS011;4194;43.408;24.626;2022-09-21T12:05:38;4.53;;;1.53;;
8312;SDS011;4194;43.408;24.626;2022-09-21T12:08:30;1.90;;;1.20;;
8312;SDS011;4194;43.408;24.626;2022-09-21T12:13:55;5.23;;;1.57;;
8312;SDS011;4194;43.408;24.626;2022-09-21T12:21:38;2.33;;;1.10;;
8312;SDS011;4194;43.408;24.626;2022-09-21T12:26:56;1.93;;;1.67;;
8312;SDS011;4194;43.408;24.626;2022-09-21T12:29:27;2.10;;;1.90;;
8312;SDS011;4194;43.408;24.626;2022-09-21T12:32:13;2.00;;;1.60;;
8312;SDS011;4194;43.408;24.626;2022-09-21T12:35:02;4.27;;;1.93;;
8312;SDS011;4194;43.408;24.626;2022-09-21T12:38:20;4.93;;;1.97;;
8312;SDS011;4194;43.408;24.626;2022-09-21T12:46:24;3.40;;;3.10;;
8312;SDS011;4194;43.408;24.626;2022-09-21T12:49:07;2.10;;;1.90;;
8312;SDS011;4194;43.408;24.626;2022-09-21T12:51:42;2.90;;;1.50;;
8312;SDS011;4194;43.408;24.626;2022-09-21T12:54:16;3.30;;;1.27;;
8312;SDS011;4194;43.408;24.626;2022-09-21T12:56:58;2.67;;;1.83;;
8312;SDS011;4194;43.408;24.626;2022-09-21T12:59:51;3.97;;;1.37;;
8312;SDS011;4194;43.408;24.626;2022-09-21T13:08:03;2.23;;;1.70;;
8312;SDS011;4194;43.408;24.626;2022-09-21T13:10:56;2.60;;;1.40;;
8312;SDS011;4194;43.408;24.626;2022-09-21T13:16:02;5.27;;;1.43;;
8312;SDS011;4194;43.408;24.626;2022-09-21T13:18:31;4.20;;;1.53;;
8312;SDS011;4194;43.408;24.626;2022-09-21T13:23:42;1.30;;;1.20;;
8312;SDS011;4194;43.408;24.626;2022-09-21T13:26:09;5.07;;;1.70;;
8312;SDS011;4194;43.408;24.626;2022-09-21T13:36:41;3.13;;;1.60;;
8312;SDS011;4194;43.408;24.626;2022-09-21T13:41:34;4.00;;;1.93;;
8312;SDS011;4194;43.408;24.626;2022-09-21T13:44:12;3.50;;;1.70;;
8312;SDS011;4194;43.408;24.626;2022-09-21T13:46:57;3.07;;;2.00;;
8312;SDS011;4194;43.408;24.626;2022-09-21T13:49:28;4.03;;;2.47;;
8312;SDS011;4194;43.408;24.626;2022-09-21T13:52:05;4.67;;;2.20;;
8312;SDS011;4194;43.408;24.626;2022-09-21T13:54:50;6.47;;;2.63;;
8312;SDS011;4194;43.408;24.626;2022-09-21T13:57:30;4.27;;;1.70;;
8312;SDS011;4194;43.408;24.626;2022-09-21T14:02:37;3.27;;;2.30;;
8312;SDS011;4194;43.408;24.626;2022-09-21T14:05:18;7.17;;;2.50;;
8312;SDS011;4194;43.408;24.626;2022-09-21T14:08:24;5.17;;;3.00;;
8312;SDS011;4194;43.408;24.626;2022-09-21T14:11:09;7.83;;;3.63;;
8312;SDS011;4194;43.408;24.626;2022-09-21T14:13:43;3.90;;;2.60;;
8312;SDS011;4194;43.408;24.626;2022-09-21T14:19:01;11.20;;;3.93;;
8312;SDS011;4194;43.408;24.626;2022-09-21T14:24:43;12.30;;;4.60;;
8312;SDS011;4194;43.408;24.626;2022-09-21T14:33:03;3.43;;;2.33;;
8312;SDS011;4194;43.408;24.626;2022-09-21T14:35:44;1.33;;;1.23;;
8312;SDS011;4194;43.408;24.626;2022-09-21T14:41:05;2.87;;;1.33;;
8312;SDS011;4194;43.408;24.626;2022-09-21T14:43:32;3.63;;;1.70;;
8312;SDS011;4194;43.408;24.626;2022-09-21T14:51:56;3.97;;;2.40;;
8312;SDS011;4194;43.408;24.626;2022-09-21T15:02:45;3.83;;;1.60;;
8312;SDS011;4194;43.408;24.626;2022-09-21T15:14:19;2.90;;;1.83;;
8312;SDS011;4194;43.408;24.626;2022-09-21T15:16:53;3.90;;;2.03;;
8312;SDS011;4194;43.408;24.626;2022-09-21T15:21:55;3.35;;;1.83;;
8312;SDS011;4194;43.408;24.626;2022-09-21T15:24:33;2.53;;;1.60;;
8312;SDS011;4194;43.408;24.626;2022-09-21T15:27:04;2.47;;;1.80;;
8312;SDS011;4194;43.408;24.626;2022-09-21T15:29:45;3.00;;;1.73;;
8312;SDS011;4194;43.408;24.626;2022-09-21T15:35:01;3.83;;;2.03;;
8312;SDS011;4194;43.408;24.626;2022-09-21T15:37:33;5.17;;;2.00;;
8312;SDS011;4194;43.408;24.626;2022-09-21T15:40:01;4.57;;;2.07;;
8312;SDS011;4194;43.408;24.626;2022-09-21T15:42:30;1.70;;;1.60;;
8312;SDS011;4194;43.408;24.626;2022-09-21T15:45:12;3.40;;;1.83;;
8312;SDS011;4194;43.408;24.626;2022-09-21T15:47:41;2.63;;;1.73;;
8312;SDS011;4194;43.408;24.626;2022-09-21T15:50:13;2.00;;;1.40;;
8312;SDS011;4194;43.408;24.626;2022-09-21T15:52:59;2.70;;;1.90;;
8312;SDS011;4194;43.408;24.626;2022-09-21T15:55:29;2.93;;;2.03;;
8312;SDS011;4194;43.408;24.626;2022-09-21T15:57:57;3.50;;;1.77;;
8312;SDS011;4194;43.408;24.626;2022-09-21T16:00:28;1.90;;;1.80;;
8312;SDS011;4194;43.408;24.626;2022-09-21T16:02:58;2.63;;;2.20;;
8312;SDS011;4194;43.408;24.626;2022-09-21T16:05:52;2.17;;;1.63;;
8312;SDS011;4194;43.408;24.626;2022-09-21T16:11:41;4.33;;;2.03;;
8312;SDS011;4194;43.408;24.626;2022-09-21T16:13:56;3.63;;;2.30;;
8312;SDS011;4194;43.408;24.626;2022-09-21T16:20:23;2.77;;;2.57;;
8312;SDS011;4194;43.408;24.626;2022-09-21T16:22:28;6.00;;;3.63;;
8312;SDS011;4194;43.408;24.626;2022-09-21T16:38:58;3.73;;;3.00;;
8312;SDS011;4194;43.408;24.626;2022-09-21T16:41:34;4.00;;;3.03;;
8312;SDS011;4194;43.408;24.626;2022-09-21T16:44:09;5.87;;;2.87;;
8312;SDS011;4194;43.408;24.626;2022-09-21T16:46:39;6.57;;;3.50;;
8312;SDS011;4194;43.408;24.626;2022-09-21T16:49:09;5.47;;;3.20;;
8312;SDS011;4194;43.408;24.626;2022-09-21T16:51:39;4.47;;;2.80;;
8312;SDS011;4194;43.408;24.626;2022-09-21T16:54:05;2.97;;;2.57;;
8312;SDS011;4194;43.408;24.626;2022-09-21T16:56:32;4.67;;;2.47;;
8312;SDS011;4194;43.408;24.626;2022-09-21T16:58:59;3.07;;;2.13;;
8312;SDS011;4194;43.408;24.626;2022-09-21T17:01:29;3.97;;;2.60;;
8312;SDS011;4194;43.408;24.626;2022-09-21T17:03:55;4.07;;;3.00;;
8312;SDS011;4194;43.408;24.626;2022-09-21T17:06:20;4.87;;;3.13;;
8312;SDS011;4194;43.408;24.626;2022-09-21T17:08:47;6.30;;;3.37;;
8312;SDS011;4194;43.408;24.626;2022-09-21T17:11:14;5.30;;;3.30;;
8312;SDS011;4194;43.408;24.626;2022-09-21T17:13:47;3.77;;;3.13;;
8312;SDS011;4194;43.408;24.626;2022-09-21T17:16:14;5.70;;;3.67;;
8312;SDS011;4194;43.408;24.626;2022-09-21T17:18:43;5.40;;;4.00;;
8312;SDS011;4194;43.408;24.626;2022-09-21T17:21:10;10.17;;;4.33;;
8312;SDS011;4194;43.408;24.626;2022-09-21T17:23:36;5.97;;;4.87;;
8312;SDS011;4194;43.408;24.626;2022-09-21T17:26:02;4.30;;;3.47;;
8312;SDS011;4194;43.408;24.626;2022-09-21T17:28:35;3.47;;;2.80;;
8312;SDS011;4194;43.408;24.626;2022-09-21T17:31:02;4.77;;;2.47;;
8312;SDS011;4194;43.408;24.626;2022-09-21T17:33:27;2.60;;;2.20;;
8312;SDS011;4194;43.408;24.626;2022-09-21T17:35:53;3.53;;;2.10;;
8312;SDS011;4194;43.408;24.626;2022-09-21T17:38:19;2.77;;;2.03;;
8312;SDS011;4194;43.408;24.626;2022-09-21T17:40:44;4.13;;;2.45;;
8312;SDS011;4194;43.408;24.626;2022-09-21T17:48:51;5.63;;;3.57;;
8312;SDS011;4194;43.408;24.626;2022-09-21T17:51:17;8.20;;;4.90;;
8312;SDS011;4194;43.408;24.626;2022-09-21T17:54:03;8.27;;;5.13;;
8312;SDS011;4194;43.408;24.626;2022-09-21T17:56:45;9.10;;;6.60;;
8312;SDS011;4194;43.408;24.626;2022-09-21T18:01:59;8.80;;;5.40;;
8312;SDS011;4194;43.408;24.626;2022-09-21T18:04:29;6.67;;;5.87;;
8312;SDS011;4194;43.408;24.626;2022-09-21T18:06:58;8.03;;;5.30;;
8312;SDS011;4194;43.408;24.626;2022-09-21T18:09:24;8.17;;;5.30;;
8312;SDS011;4194;43.408;24.626;2022-09-21T18:20:15;8.40;;;6.03;;
8312;SDS011;4194;43.408;24.626;2022-09-21T18:22:59;7.77;;;6.33;;
8312;SDS011;4194;43.408;24.626;2022-09-21T18:25:35;8.93;;;5.90;;
8312;SDS011;4194;43.408;24.626;2022-09-21T18:28:56;9.83;;;7.10;;
8312;SDS011;4194;43.408;24.626;2022-09-21T18:31:06;16.33;;;7.80;;
8312;SDS011;4194;43.408;24.626;2022-09-21T18:33:53;9.57;;;7.27;;
8312;SDS011;4194;43.408;24.626;2022-09-21T18:36:35;9.77;;;6.87;;
8312;SDS011;4194;43.408;24.626;2022-09-21T18:45:05;8.97;;;6.70;;
8312;SDS011;4194;43.408;24.626;2022-09-21T18:55:49;8.10;;;6.10;;
8312;SDS011;4194;43.408;24.626;2022-09-21T18:58:16;10.00;;;6.00;;
8312;SDS011;4194;43.408;24.626;2022-09-21T19:00:42;7.73;;;5.17;;
8312;SDS011;4194;43.408;24.626;2022-09-21T19:03:11;10.43;;;6.50;;
8312;SDS011;4194;43.408;24.626;2022-09-21T19:05:48;7.73;;;6.33;;
8312;SDS011;4194;43.408;24.626;2022-09-21T19:08:36;12.70;;;7.20;;
8312;SDS011;4194;43.408;24.626;2022-09-21T19:11:15;8.77;;;5.70;;
8312;SDS011;4194;43.408;24.626;2022-09-21T19:14:09;6.93;;;5.37;;
8312;SDS011;4194;43.408;24.626;2022-09-21T19:22:27;11.13;;;6.57;;
8312;SDS011;4194;43.408;24.626;2022-09-21T19:27:57;6.17;;;4.33;;
8312;SDS011;4194;43.408;24.626;2022-09-21T19:30:26;5.00;;;3.33;;
8312;SDS011;4194;43.408;24.626;2022-09-21T19:32:53;4.13;;;3.23;;
8312;SDS011;4194;43.408;24.626;2022-09-21T19:35:25;4.10;;;2.70;;
8312;SDS011;4194;43.408;24.626;2022-09-21T19:37:53;3.70;;;2.50;;
8312;SDS011;4194;43.408;24.626;2022-09-21T19:40:26;2.83;;;2.40;;
8312;SDS011;4194;43.408;24.626;2022-09-21T19:42:57;2.33;;;2.10;;
8312;SDS011;4194;43.408;24.626;2022-09-21T19:45:37;1.93;;;1.70;;
8312;SDS011;4194;43.408;24.626;2022-09-21T19:48:17;3.50;;;2.00;;
8312;SDS011;4194;43.408;24.626;2022-09-21T19:53:17;3.87;;;2.20;;
8312;SDS011;4194;43.408;24.626;2022-09-21T19:56:01;3.07;;;2.13;;
8312;SDS011;4194;43.408;24.626;2022-09-21T19:58:50;3.03;;;2.43;;
8312;SDS011;4194;43.408;24.626;2022-09-21T20:01:35;4.47;;;3.10;;